sensor_id;sensor_type;location;lat;lon;timestamp;P1;durP1;ratioP1;P2;durP2;ratioP2
41643;SDS011;44236;48.098;11.582;2022-07-29T00:01:49;3.45;;;1.00;;
41643;SDS011;44236;48.098;11.582;2022-07-29T00:04:14;1.55;;;0.85;;
41643;SDS011;44236;48.098;11.582;2022-07-29T00:06:40;5.10;;;1.05;;
41643;SDS011;44236;48.098;11.582;2022-07-29T00:09:06;1.90;;;0.93;;
41643;SDS011;44236;48.098;11.582;2022-07-29T00:11:32;3.90;;;1.20;;
41643;SDS011;44236;48.098;11.582;2022-07-29T00:13:58;3.78;;;1.17;;
41643;SDS011;44236;48.098;11.582;2022-07-29T00:16:23;2.17;;;1.00;;
41643;SDS011;44236;48.098;11.582;2022-07-29T00:18:49;1.95;;;1.02;;
41643;SDS011;44236;48.098;11.582;2022-07-29T00:21:15;2.78;;;1.20;;
41643;SDS011;44236;48.098;11.582;2022-07-29T00:23:41;1.65;;;1.10;;
41643;SDS011;44236;48.098;11.582;2022-07-29T00:26:06;2.25;;;1.25;;
41643;SDS011;44236;48.098;11.582;2022-07-29T00:28:32;1.65;;;0.80;;
41643;SDS011;44236;48.098;11.582;2022-07-29T00:30:58;1.38;;;1.00;;
41643;SDS011;44236;48.098;11.582;2022-07-29T00:33:23;2.08;;;0.80;;
41643;SDS011;44236;48.098;11.582;2022-07-29T00:35:49;4.18;;;1.30;;
41643;SDS011;44236;48.098;11.582;2022-07-29T00:38:16;2.15;;;1.08;;
41643;SDS011;44236;48.098;11.582;2022-07-29T00:40:43;6.28;;;0.98;;
41643;SDS011;44236;48.098;11.582;2022-07-29T00:43:10;2.08;;;1.30;;
41643;SDS011;44236;48.098;11.582;2022-07-29T00:45:36;1.90;;;1.10;;
41643;SDS011;44236;48.098;11.582;2022-07-29T00:48:03;1.85;;;1.15;;
41643;SDS011;44236;48.098;11.582;2022-07-29T00:50:29;3.00;;;1.10;;
41643;SDS011;44236;48.098;11.582;2022-07-29T00:52:56;2.33;;;1.15;;
41643;SDS011;44236;48.098;11.582;2022-07-29T00:55:21;2.88;;;1.30;;
41643;SDS011;44236;48.098;11.582;2022-07-29T00:57:47;3.95;;;1.02;;
41643;SDS011;44236;48.098;11.582;2022-07-29T01:00:18;0.77;;;0.75;;
41643;SDS011;44236;48.098;11.582;2022-07-29T01:02:46;2.00;;;1.02;;
41643;SDS011;44236;48.098;11.582;2022-07-29T01:05:13;2.13;;;0.95;;
41643;SDS011;44236;48.098;11.582;2022-07-29T01:07:41;1.63;;;0.98;;
41643;SDS011;44236;48.098;11.582;2022-07-29T01:10:07;2.33;;;1.30;;
41643;SDS011;44236;48.098;11.582;2022-07-29T01:12:35;4.30;;;1.10;;
41643;SDS011;44236;48.098;11.582;2022-07-29T01:15:03;2.30;;;1.05;;
41643;SDS011;44236;48.098;11.582;2022-07-29T01:17:42;1.77;;;0.90;;
41643;SDS011;44236;48.098;11.582;2022-07-29T01:25:48;1.85;;;0.90;;
41643;SDS011;44236;48.098;11.582;2022-07-29T01:31:03;4.07;;;1.00;;
41643;SDS011;44236;48.098;11.582;2022-07-29T01:33:31;2.35;;;1.27;;
41643;SDS011;44236;48.098;11.582;2022-07-29T01:36:25;1.58;;;0.82;;
41643;SDS011;44236;48.098;11.582;2022-07-29T01:42:34;1.73;;;1.05;;
41643;SDS011;44236;48.098;11.582;2022-07-29T01:47:33;1.30;;;0.80;;
41643;SDS011;44236;48.098;11.582;2022-07-29T01:50:05;1.95;;;1.02;;
41643;SDS011;44236;48.098;11.582;2022-07-29T01:52:41;1.38;;;0.90;;
41643;SDS011;44236;48.098;11.582;2022-07-29T01:55:17;1.88;;;0.80;;
41643;SDS011;44236;48.098;11.582;2022-07-29T01:57:45;1.63;;;0.85;;
41643;SDS011;44236;48.098;11.582;2022-07-29T02:00:13;1.80;;;1.00;;
41643;SDS011;44236;48.098;11.582;2022-07-29T02:02:40;1.75;;;0.85;;
41643;SDS011;44236;48.098;11.582;2022-07-29T02:05:09;1.20;;;0.82;;
41643;SDS011;44236;48.098;11.582;2022-07-29T02:07:37;1.13;;;0.60;;
41643;SDS011;44236;48.098;11.582;2022-07-29T02:10:05;1.92;;;0.85;;
41643;SDS011;44236;48.098;11.582;2022-07-29T02:12:32;2.60;;;0.88;;
41643;SDS011;44236;48.098;11.582;2022-07-29T02:15:00;1.30;;;0.73;;
41643;SDS011;44236;48.098;11.582;2022-07-29T02:17:29;1.48;;;0.82;;
41643;SDS011;44236;48.098;11.582;2022-07-29T02:19:59;1.10;;;0.65;;
41643;SDS011;44236;48.098;11.582;2022-07-29T02:22:28;2.53;;;0.65;;
41643;SDS011;44236;48.098;11.582;2022-07-29T02:24:56;0.88;;;0.63;;
41643;SDS011;44236;48.098;11.582;2022-07-29T02:27:23;1.48;;;0.70;;
41643;SDS011;44236;48.098;11.582;2022-07-29T02:29:52;1.25;;;0.80;;
41643;SDS011;44236;48.098;11.582;2022-07-29T02:32:19;1.67;;;0.90;;
41643;SDS011;44236;48.098;11.582;2022-07-29T02:34:47;2.30;;;0.75;;
41643;SDS011;44236;48.098;11.582;2022-07-29T02:37:15;0.60;;;0.50;;
41643;SDS011;44236;48.098;11.582;2022-07-29T02:39:43;1.52;;;1.00;;
41643;SDS011;44236;48.098;11.582;2022-07-29T02:42:11;1.25;;;0.80;;
41643;SDS011;44236;48.098;11.582;2022-07-29T02:44:38;2.33;;;0.90;;
41643;SDS011;44236;48.098;11.582;2022-07-29T02:52:15;1.42;;;0.88;;
41643;SDS011;44236;48.098;11.582;2022-07-29T02:54:58;1.80;;;0.80;;
41643;SDS011;44236;48.098;11.582;2022-07-29T02:57:31;0.82;;;0.52;;
41643;SDS011;44236;48.098;11.582;2022-07-29T03:00:21;2.72;;;0.90;;
41643;SDS011;44236;48.098;11.582;2022-07-29T03:02:52;2.23;;;1.00;;
41643;SDS011;44236;48.098;11.582;2022-07-29T03:05:21;2.10;;;0.90;;
41643;SDS011;44236;48.098;11.582;2022-07-29T03:07:57;0.82;;;0.70;;
41643;SDS011;44236;48.098;11.582;2022-07-29T03:10:26;1.63;;;0.70;;
41643;SDS011;44236;48.098;11.582;2022-07-29T03:12:54;1.52;;;0.80;;
41643;SDS011;44236;48.098;11.582;2022-07-29T03:15:21;1.60;;;0.75;;
41643;SDS011;44236;48.098;11.582;2022-07-29T03:17:47;2.03;;;0.70;;
41643;SDS011;44236;48.098;11.582;2022-07-29T03:20:14;2.65;;;1.00;;
41643;SDS011;44236;48.098;11.582;2022-07-29T03:22:40;1.27;;;0.90;;
41643;SDS011;44236;48.098;11.582;2022-07-29T03:25:11;2.90;;;0.85;;
41643;SDS011;44236;48.098;11.582;2022-07-29T03:27:41;2.38;;;1.25;;
41643;SDS011;44236;48.098;11.582;2022-07-29T03:30:08;2.28;;;0.98;;
41643;SDS011;44236;48.098;11.582;2022-07-29T03:32:34;3.38;;;0.88;;
41643;SDS011;44236;48.098;11.582;2022-07-29T03:35:00;1.52;;;0.63;;
41643;SDS011;44236;48.098;11.582;2022-07-29T03:37:26;1.52;;;0.80;;
41643;SDS011;44236;48.098;11.582;2022-07-29T03:39:52;1.15;;;0.80;;
41643;SDS011;44236;48.098;11.582;2022-07-29T03:42:21;1.90;;;0.80;;
41643;SDS011;44236;48.098;11.582;2022-07-29T03:44:50;1.73;;;0.90;;
41643;SDS011;44236;48.098;11.582;2022-07-29T03:47:18;0.90;;;0.65;;
41643;SDS011;44236;48.098;11.582;2022-07-29T03:49:48;1.15;;;0.77;;
41643;SDS011;44236;48.098;11.582;2022-07-29T03:52:17;1.77;;;0.70;;
41643;SDS011;44236;48.098;11.582;2022-07-29T03:54:43;1.90;;;1.00;;
41643;SDS011;44236;48.098;11.582;2022-07-29T03:57:10;1.52;;;0.85;;
41643;SDS011;44236;48.098;11.582;2022-07-29T03:59:36;1.70;;;0.95;;
41643;SDS011;44236;48.098;11.582;2022-07-29T04:02:05;3.90;;;0.95;;
41643;SDS011;44236;48.098;11.582;2022-07-29T04:04:35;1.30;;;0.73;;
41643;SDS011;44236;48.098;11.582;2022-07-29T04:07:01;1.10;;;0.70;;
41643;SDS011;44236;48.098;11.582;2022-07-29T04:09:27;1.52;;;0.88;;
41643;SDS011;44236;48.098;11.582;2022-07-29T04:11:53;1.25;;;0.80;;
41643;SDS011;44236;48.098;11.582;2022-07-29T04:14:19;3.00;;;0.85;;
41643;SDS011;44236;48.098;11.582;2022-07-29T04:16:45;1.77;;;0.80;;
41643;SDS011;44236;48.098;11.582;2022-07-29T04:19:11;1.42;;;0.90;;
41643;SDS011;44236;48.098;11.582;2022-07-29T04:21:37;1.63;;;0.98;;
41643;SDS011;44236;48.098;11.582;2022-07-29T04:24:04;1.05;;;0.80;;
41643;SDS011;44236;48.098;11.582;2022-07-29T04:26:30;1.48;;;0.80;;
41643;SDS011;44236;48.098;11.582;2022-07-29T04:28:55;2.38;;;1.20;;
41643;SDS011;44236;48.098;11.582;2022-07-29T04:31:21;1.50;;;0.88;;
41643;SDS011;44236;48.098;11.582;2022-07-29T04:33:47;2.22;;;1.30;;
41643;SDS011;44236;48.098;11.582;2022-07-29T04:36:12;2.83;;;1.13;;
41643;SDS011;44236;48.098;11.582;2022-07-29T04:38:38;2.20;;;0.93;;
41643;SDS011;44236;48.098;11.582;2022-07-29T04:41:04;8.52;;;1.00;;
41643;SDS011;44236;48.098;11.582;2022-07-29T04:43:32;4.38;;;1.02;;
41643;SDS011;44236;48.098;11.582;2022-07-29T04:45:58;2.45;;;1.30;;
41643;SDS011;44236;48.098;11.582;2022-07-29T04:48:24;3.00;;;1.30;;
41643;SDS011;44236;48.098;11.582;2022-07-29T04:50:49;5.72;;;1.77;;
41643;SDS011;44236;48.098;11.582;2022-07-29T04:53:15;4.95;;;1.85;;
41643;SDS011;44236;48.098;11.582;2022-07-29T04:55:40;5.15;;;2.05;;
41643;SDS011;44236;48.098;11.582;2022-07-29T04:58:06;2.65;;;1.30;;
41643;SDS011;44236;48.098;11.582;2022-07-29T05:00:32;3.15;;;1.70;;
41643;SDS011;44236;48.098;11.582;2022-07-29T05:02:59;2.95;;;1.30;;
41643;SDS011;44236;48.098;11.582;2022-07-29T05:05:24;3.35;;;1.05;;
41643;SDS011;44236;48.098;11.582;2022-07-29T05:07:50;1.75;;;0.93;;
41643;SDS011;44236;48.098;11.582;2022-07-29T05:10:16;3.33;;;1.23;;
41643;SDS011;44236;48.098;11.582;2022-07-29T05:12:41;4.82;;;1.13;;
41643;SDS011;44236;48.098;11.582;2022-07-29T05:15:07;2.15;;;1.17;;
41643;SDS011;44236;48.098;11.582;2022-07-29T05:17:33;2.05;;;1.10;;
41643;SDS011;44236;48.098;11.582;2022-07-29T05:19:59;2.17;;;1.13;;
41643;SDS011;44236;48.098;11.582;2022-07-29T05:22:24;2.05;;;1.13;;
41643;SDS011;44236;48.098;11.582;2022-07-29T05:24:50;6.68;;;1.90;;
41643;SDS011;44236;48.098;11.582;2022-07-29T05:27:16;2.45;;;1.10;;
41643;SDS011;44236;48.098;11.582;2022-07-29T05:29:41;3.28;;;1.52;;
41643;SDS011;44236;48.098;11.582;2022-07-29T05:32:07;2.60;;;1.10;;
41643;SDS011;44236;48.098;11.582;2022-07-29T05:34:33;2.88;;;1.17;;
41643;SDS011;44236;48.098;11.582;2022-07-29T05:36:58;2.72;;;1.10;;
41643;SDS011;44236;48.098;11.582;2022-07-29T05:39:24;2.58;;;1.20;;
41643;SDS011;44236;48.098;11.582;2022-07-29T05:41:50;2.70;;;1.23;;
41643;SDS011;44236;48.098;11.582;2022-07-29T05:44:15;4.32;;;1.30;;
41643;SDS011;44236;48.098;11.582;2022-07-29T05:46:41;3.95;;;1.40;;
41643;SDS011;44236;48.098;11.582;2022-07-29T05:49:07;3.92;;;1.50;;
41643;SDS011;44236;48.098;11.582;2022-07-29T05:51:33;3.30;;;1.38;;
41643;SDS011;44236;48.098;11.582;2022-07-29T05:53:59;2.83;;;1.35;;
41643;SDS011;44236;48.098;11.582;2022-07-29T05:56:25;2.95;;;1.00;;
41643;SDS011;44236;48.098;11.582;2022-07-29T05:58:51;1.52;;;0.93;;
41643;SDS011;44236;48.098;11.582;2022-07-29T06:01:17;1.85;;;1.02;;
41643;SDS011;44236;48.098;11.582;2022-07-29T06:03:42;2.20;;;1.20;;
41643;SDS011;44236;48.098;11.582;2022-07-29T06:06:08;11.35;;;1.60;;
41643;SDS011;44236;48.098;11.582;2022-07-29T06:08:34;3.85;;;1.40;;
41643;SDS011;44236;48.098;11.582;2022-07-29T06:11:01;6.78;;;2.30;;
41643;SDS011;44236;48.098;11.582;2022-07-29T06:13:27;6.35;;;2.08;;
41643;SDS011;44236;48.098;11.582;2022-07-29T06:15:53;12.27;;;3.42;;
41643;SDS011;44236;48.098;11.582;2022-07-29T06:18:19;12.05;;;4.32;;
41643;SDS011;44236;48.098;11.582;2022-07-29T06:20:45;10.43;;;2.67;;
41643;SDS011;44236;48.098;11.582;2022-07-29T06:23:11;14.48;;;4.15;;
41643;SDS011;44236;48.098;11.582;2022-07-29T06:25:37;15.48;;;2.95;;
41643;SDS011;44236;48.098;11.582;2022-07-29T06:28:04;11.02;;;2.58;;
41643;SDS011;44236;48.098;11.582;2022-07-29T06:30:30;7.97;;;2.55;;
41643;SDS011;44236;48.098;11.582;2022-07-29T06:32:55;9.65;;;2.42;;
41643;SDS011;44236;48.098;11.582;2022-07-29T06:35:21;9.18;;;2.83;;
41643;SDS011;44236;48.098;11.582;2022-07-29T06:37:46;10.85;;;2.55;;
41643;SDS011;44236;48.098;11.582;2022-07-29T06:40:12;6.43;;;1.95;;
41643;SDS011;44236;48.098;11.582;2022-07-29T06:42:56;7.65;;;2.00;;
41643;SDS011;44236;48.098;11.582;2022-07-29T06:45:22;6.97;;;2.10;;
41643;SDS011;44236;48.098;11.582;2022-07-29T06:47:49;5.10;;;1.92;;
41643;SDS011;44236;48.098;11.582;2022-07-29T06:50:15;9.38;;;2.38;;
41643;SDS011;44236;48.098;11.582;2022-07-29T06:52:41;9.20;;;2.80;;
41643;SDS011;44236;48.098;11.582;2022-07-29T06:55:06;8.00;;;3.10;;
41643;SDS011;44236;48.098;11.582;2022-07-29T06:57:33;8.65;;;2.22;;
41643;SDS011;44236;48.098;11.582;2022-07-29T06:59:59;7.90;;;1.90;;
41643;SDS011;44236;48.098;11.582;2022-07-29T07:02:25;6.65;;;2.00;;
41643;SDS011;44236;48.098;11.582;2022-07-29T07:04:50;5.95;;;2.22;;
41643;SDS011;44236;48.098;11.582;2022-07-29T07:07:16;4.68;;;1.70;;
41643;SDS011;44236;48.098;11.582;2022-07-29T07:09:42;3.53;;;2.03;;
41643;SDS011;44236;48.098;11.582;2022-07-29T07:12:08;4.88;;;1.77;;
41643;SDS011;44236;48.098;11.582;2022-07-29T07:14:34;5.50;;;1.50;;
41643;SDS011;44236;48.098;11.582;2022-07-29T07:16:59;3.30;;;1.50;;
41643;SDS011;44236;48.098;11.582;2022-07-29T07:19:26;6.57;;;1.90;;
41643;SDS011;44236;48.098;11.582;2022-07-29T07:21:54;11.45;;;2.45;;
41643;SDS011;44236;48.098;11.582;2022-07-29T07:24:20;4.03;;;1.77;;
41643;SDS011;44236;48.098;11.582;2022-07-29T07:26:46;4.28;;;2.22;;
41643;SDS011;44236;48.098;11.582;2022-07-29T07:29:11;5.50;;;1.55;;
41643;SDS011;44236;48.098;11.582;2022-07-29T07:31:38;6.22;;;1.98;;
41643;SDS011;44236;48.098;11.582;2022-07-29T07:34:03;7.00;;;1.90;;
41643;SDS011;44236;48.098;11.582;2022-07-29T07:36:29;2.22;;;1.30;;
41643;SDS011;44236;48.098;11.582;2022-07-29T07:38:55;3.70;;;1.70;;
41643;SDS011;44236;48.098;11.582;2022-07-29T07:41:21;3.45;;;1.30;;
41643;SDS011;44236;48.098;11.582;2022-07-29T07:43:47;3.58;;;1.23;;
41643;SDS011;44236;48.098;11.582;2022-07-29T07:46:13;4.10;;;1.85;;
41643;SDS011;44236;48.098;11.582;2022-07-29T07:48:39;4.45;;;1.20;;
41643;SDS011;44236;48.098;11.582;2022-07-29T07:51:05;3.50;;;1.38;;
41643;SDS011;44236;48.098;11.582;2022-07-29T07:53:32;5.22;;;1.73;;
41643;SDS011;44236;48.098;11.582;2022-07-29T07:55:57;6.50;;;1.77;;
41643;SDS011;44236;48.098;11.582;2022-07-29T07:58:23;5.97;;;1.92;;
41643;SDS011;44236;48.098;11.582;2022-07-29T08:00:49;5.88;;;1.52;;
41643;SDS011;44236;48.098;11.582;2022-07-29T08:03:14;3.60;;;1.45;;
41643;SDS011;44236;48.098;11.582;2022-07-29T08:05:40;3.58;;;1.48;;
41643;SDS011;44236;48.098;11.582;2022-07-29T08:08:06;3.90;;;1.20;;
41643;SDS011;44236;48.098;11.582;2022-07-29T08:10:32;5.50;;;1.65;;
41643;SDS011;44236;48.098;11.582;2022-07-29T08:13:16;4.47;;;1.30;;
41643;SDS011;44236;48.098;11.582;2022-07-29T08:15:43;3.47;;;1.30;;
41643;SDS011;44236;48.098;11.582;2022-07-29T08:18:10;2.03;;;1.30;;
41643;SDS011;44236;48.098;11.582;2022-07-29T08:20:36;1.67;;;1.10;;
41643;SDS011;44236;48.098;11.582;2022-07-29T08:23:03;3.00;;;1.40;;
41643;SDS011;44236;48.098;11.582;2022-07-29T08:25:32;5.65;;;1.83;;
41643;SDS011;44236;48.098;11.582;2022-07-29T08:27:58;2.63;;;1.23;;
41643;SDS011;44236;48.098;11.582;2022-07-29T08:30:24;4.10;;;1.80;;
41643;SDS011;44236;48.098;11.582;2022-07-29T08:32:49;3.22;;;1.40;;
41643;SDS011;44236;48.098;11.582;2022-07-29T08:35:18;4.90;;;1.50;;
41643;SDS011;44236;48.098;11.582;2022-07-29T08:37:44;2.40;;;1.00;;
41643;SDS011;44236;48.098;11.582;2022-07-29T08:40:11;4.45;;;1.30;;
41643;SDS011;44236;48.098;11.582;2022-07-29T08:42:36;3.08;;;1.42;;
41643;SDS011;44236;48.098;11.582;2022-07-29T08:45:03;2.50;;;1.38;;
41643;SDS011;44236;48.098;11.582;2022-07-29T08:47:29;3.63;;;1.50;;
41643;SDS011;44236;48.098;11.582;2022-07-29T08:49:55;4.00;;;1.15;;
41643;SDS011;44236;48.098;11.582;2022-07-29T08:52:21;2.30;;;1.20;;
41643;SDS011;44236;48.098;11.582;2022-07-29T08:54:50;2.85;;;1.17;;
41643;SDS011;44236;48.098;11.582;2022-07-29T08:57:18;2.55;;;1.60;;
41643;SDS011;44236;48.098;11.582;2022-07-29T08:59:46;4.30;;;1.55;;
41643;SDS011;44236;48.098;11.582;2022-07-29T09:02:21;3.63;;;1.70;;
41643;SDS011;44236;48.098;11.582;2022-07-29T09:04:48;3.42;;;1.67;;
41643;SDS011;44236;48.098;11.582;2022-07-29T09:07:15;6.40;;;1.88;;
41643;SDS011;44236;48.098;11.582;2022-07-29T09:09:42;2.90;;;1.60;;
41643;SDS011;44236;48.098;11.582;2022-07-29T09:12:11;2.60;;;1.40;;
41643;SDS011;44236;48.098;11.582;2022-07-29T09:14:38;3.65;;;1.50;;
41643;SDS011;44236;48.098;11.582;2022-07-29T09:17:04;3.95;;;1.50;;
41643;SDS011;44236;48.098;11.582;2022-07-29T09:19:31;2.67;;;1.13;;
41643;SDS011;44236;48.098;11.582;2022-07-29T09:21:59;2.83;;;1.77;;
41643;SDS011;44236;48.098;11.582;2022-07-29T09:24:42;2.63;;;1.30;;
41643;SDS011;44236;48.098;11.582;2022-07-29T09:30:00;2.72;;;1.08;;
41643;SDS011;44236;48.098;11.582;2022-07-29T09:32:26;3.22;;;1.20;;
41643;SDS011;44236;48.098;11.582;2022-07-29T09:37:47;2.03;;;1.30;;
41643;SDS011;44236;48.098;11.582;2022-07-29T09:40:18;2.05;;;1.08;;
41643;SDS011;44236;48.098;11.582;2022-07-29T09:42:45;2.85;;;1.10;;
41643;SDS011;44236;48.098;11.582;2022-07-29T09:45:11;3.33;;;1.65;;
41643;SDS011;44236;48.098;11.582;2022-07-29T09:47:46;1.45;;;1.00;;
41643;SDS011;44236;48.098;11.582;2022-07-29T09:50:14;2.40;;;1.30;;
41643;SDS011;44236;48.098;11.582;2022-07-29T09:52:45;2.17;;;1.15;;
41643;SDS011;44236;48.098;11.582;2022-07-29T09:55:12;2.88;;;1.60;;
41643;SDS011;44236;48.098;11.582;2022-07-29T09:57:38;3.13;;;1.20;;
41643;SDS011;44236;48.098;11.582;2022-07-29T10:00:05;2.60;;;1.50;;
41643;SDS011;44236;48.098;11.582;2022-07-29T10:02:38;2.67;;;1.23;;
41643;SDS011;44236;48.098;11.582;2022-07-29T10:05:06;1.90;;;1.13;;
41643;SDS011;44236;48.098;11.582;2022-07-29T10:07:45;3.08;;;1.40;;
41643;SDS011;44236;48.098;11.582;2022-07-29T10:10:24;1.95;;;1.10;;
41643;SDS011;44236;48.098;11.582;2022-07-29T10:13:05;4.13;;;1.10;;
41643;SDS011;44236;48.098;11.582;2022-07-29T10:15:35;6.45;;;1.63;;
41643;SDS011;44236;48.098;11.582;2022-07-29T10:18:04;4.45;;;1.60;;
41643;SDS011;44236;48.098;11.582;2022-07-29T10:20:31;2.25;;;1.25;;
41643;SDS011;44236;48.098;11.582;2022-07-29T10:22:57;2.35;;;1.35;;
41643;SDS011;44236;48.098;11.582;2022-07-29T10:25:23;3.17;;;1.20;;
41643;SDS011;44236;48.098;11.582;2022-07-29T10:27:50;2.00;;;1.10;;
41643;SDS011;44236;48.098;11.582;2022-07-29T10:30:16;1.90;;;1.23;;
41643;SDS011;44236;48.098;11.582;2022-07-29T10:35:44;2.58;;;1.23;;
41643;SDS011;44236;48.098;11.582;2022-07-29T10:43:51;3.55;;;1.55;;
41643;SDS011;44236;48.098;11.582;2022-07-29T10:46:38;3.45;;;1.30;;
41643;SDS011;44236;48.098;11.582;2022-07-29T10:51:55;2.58;;;1.35;;
41643;SDS011;44236;48.098;11.582;2022-07-29T10:54:36;2.63;;;1.17;;
41643;SDS011;44236;48.098;11.582;2022-07-29T10:57:16;2.05;;;1.40;;
41643;SDS011;44236;48.098;11.582;2022-07-29T10:59:47;2.35;;;1.38;;
41643;SDS011;44236;48.098;11.582;2022-07-29T11:04:59;2.90;;;1.50;;
41643;SDS011;44236;48.098;11.582;2022-07-29T11:07:29;2.67;;;1.60;;
41643;SDS011;44236;48.098;11.582;2022-07-29T11:15:08;2.40;;;1.50;;
41643;SDS011;44236;48.098;11.582;2022-07-29T11:29:20;6.15;;;1.80;;
41643;SDS011;44236;48.098;11.582;2022-07-29T11:34:15;3.30;;;1.70;;
41643;SDS011;44236;48.098;11.582;2022-07-29T11:39:32;6.70;;;2.55;;
41643;SDS011;44236;48.098;11.582;2022-07-29T11:42:44;13.40;;;3.42;;
41643;SDS011;44236;48.098;11.582;2022-07-29T11:47:41;22.60;;;5.95;;
41643;SDS011;44236;48.098;11.582;2022-07-29T11:50:14;21.52;;;6.97;;
41643;SDS011;44236;48.098;11.582;2022-07-29T11:53:00;23.63;;;6.78;;
41643;SDS011;44236;48.098;11.582;2022-07-29T11:55:28;20.88;;;6.15;;
41643;SDS011;44236;48.098;11.582;2022-07-29T11:57:55;23.10;;;6.70;;
41643;SDS011;44236;48.098;11.582;2022-07-29T12:03:04;15.40;;;4.60;;
41643;SDS011;44236;48.098;11.582;2022-07-29T12:05:36;18.45;;;5.78;;
41643;SDS011;44236;48.098;11.582;2022-07-29T12:10:40;13.75;;;5.35;;
41643;SDS011;44236;48.098;11.582;2022-07-29T12:13:06;14.50;;;4.22;;
41643;SDS011;44236;48.098;11.582;2022-07-29T12:15:33;15.15;;;4.43;;
41643;SDS011;44236;48.098;11.582;2022-07-29T12:18:08;14.73;;;4.45;;
41643;SDS011;44236;48.098;11.582;2022-07-29T12:20:39;10.52;;;3.70;;
41643;SDS011;44236;48.098;11.582;2022-07-29T12:23:05;9.98;;;3.38;;
41643;SDS011;44236;48.098;11.582;2022-07-29T12:25:37;11.70;;;3.55;;
41643;SDS011;44236;48.098;11.582;2022-07-29T12:28:07;11.40;;;3.95;;
41643;SDS011;44236;48.098;11.582;2022-07-29T12:30:39;10.88;;;3.05;;
41643;SDS011;44236;48.098;11.582;2022-07-29T12:33:13;7.47;;;3.08;;
41643;SDS011;44236;48.098;11.582;2022-07-29T12:35:39;6.40;;;2.33;;
41643;SDS011;44236;48.098;11.582;2022-07-29T12:38:07;7.72;;;2.92;;
41643;SDS011;44236;48.098;11.582;2022-07-29T12:40:35;11.93;;;2.75;;
41643;SDS011;44236;48.098;11.582;2022-07-29T12:43:11;7.78;;;3.30;;
41643;SDS011;44236;48.098;11.582;2022-07-29T12:45:38;7.80;;;2.90;;
41643;SDS011;44236;48.098;11.582;2022-07-29T12:48:05;6.03;;;2.80;;
41643;SDS011;44236;48.098;11.582;2022-07-29T12:50:34;9.98;;;3.47;;
41643;SDS011;44236;48.098;11.582;2022-07-29T12:53:12;6.63;;;2.80;;
41643;SDS011;44236;48.098;11.582;2022-07-29T12:55:42;5.15;;;2.50;;
41643;SDS011;44236;48.098;11.582;2022-07-29T12:58:14;5.15;;;2.10;;
41643;SDS011;44236;48.098;11.582;2022-07-29T13:00:58;4.45;;;2.25;;
41643;SDS011;44236;48.098;11.582;2022-07-29T13:09:11;5.38;;;2.08;;
41643;SDS011;44236;48.098;11.582;2022-07-29T13:14:10;5.00;;;2.53;;
41643;SDS011;44236;48.098;11.582;2022-07-29T13:16:59;4.68;;;2.30;;
41643;SDS011;44236;48.098;11.582;2022-07-29T13:19:38;4.80;;;2.10;;
41643;SDS011;44236;48.098;11.582;2022-07-29T13:22:16;4.15;;;2.03;;
41643;SDS011;44236;48.098;11.582;2022-07-29T13:25:01;5.30;;;2.15;;
41643;SDS011;44236;48.098;11.582;2022-07-29T13:27:31;4.95;;;2.50;;
41643;SDS011;44236;48.098;11.582;2022-07-29T13:29:58;6.50;;;2.33;;
41643;SDS011;44236;48.098;11.582;2022-07-29T13:32:26;4.63;;;2.00;;
41643;SDS011;44236;48.098;11.582;2022-07-29T13:34:52;8.23;;;2.40;;
41643;SDS011;44236;48.098;11.582;2022-07-29T13:37:19;5.70;;;1.77;;
41643;SDS011;44236;48.098;11.582;2022-07-29T13:39:45;5.03;;;2.22;;
41643;SDS011;44236;48.098;11.582;2022-07-29T13:42:12;3.22;;;1.55;;
41643;SDS011;44236;48.098;11.582;2022-07-29T13:44:38;3.08;;;1.60;;
41643;SDS011;44236;48.098;11.582;2022-07-29T13:47:07;3.97;;;1.90;;
41643;SDS011;44236;48.098;11.582;2022-07-29T13:49:33;5.53;;;2.08;;
41643;SDS011;44236;48.098;11.582;2022-07-29T13:51:59;4.95;;;1.80;;
41643;SDS011;44236;48.098;11.582;2022-07-29T13:54:25;3.97;;;1.98;;
41643;SDS011;44236;48.098;11.582;2022-07-29T13:56:51;4.68;;;1.90;;
41643;SDS011;44236;48.098;11.582;2022-07-29T13:59:17;5.85;;;2.22;;
41643;SDS011;44236;48.098;11.582;2022-07-29T14:01:42;4.32;;;1.65;;
41643;SDS011;44236;48.098;11.582;2022-07-29T14:04:09;6.65;;;1.90;;
41643;SDS011;44236;48.098;11.582;2022-07-29T14:06:35;7.47;;;2.30;;
41643;SDS011;44236;48.098;11.582;2022-07-29T14:09:00;5.65;;;2.08;;
41643;SDS011;44236;48.098;11.582;2022-07-29T14:11:26;6.07;;;2.30;;
41643;SDS011;44236;48.098;11.582;2022-07-29T14:13:52;5.45;;;2.13;;
41643;SDS011;44236;48.098;11.582;2022-07-29T14:16:18;3.15;;;1.60;;
41643;SDS011;44236;48.098;11.582;2022-07-29T14:18:43;3.17;;;1.52;;
41643;SDS011;44236;48.098;11.582;2022-07-29T14:21:09;4.03;;;1.83;;
41643;SDS011;44236;48.098;11.582;2022-07-29T14:23:35;4.00;;;1.83;;
41643;SDS011;44236;48.098;11.582;2022-07-29T14:26:01;3.88;;;1.80;;
41643;SDS011;44236;48.098;11.582;2022-07-29T14:28:27;6.97;;;1.75;;
41643;SDS011;44236;48.098;11.582;2022-07-29T14:30:52;3.75;;;1.67;;
41643;SDS011;44236;48.098;11.582;2022-07-29T14:33:18;3.42;;;1.75;;
41643;SDS011;44236;48.098;11.582;2022-07-29T14:35:44;4.78;;;2.03;;
41643;SDS011;44236;48.098;11.582;2022-07-29T14:38:10;6.15;;;1.60;;
41643;SDS011;44236;48.098;11.582;2022-07-29T14:40:36;5.53;;;1.98;;
41643;SDS011;44236;48.098;11.582;2022-07-29T14:43:02;3.75;;;1.60;;
41643;SDS011;44236;48.098;11.582;2022-07-29T14:45:28;2.70;;;1.50;;
41643;SDS011;44236;48.098;11.582;2022-07-29T14:47:53;3.88;;;1.80;;
41643;SDS011;44236;48.098;11.582;2022-07-29T14:50:19;3.03;;;1.70;;
41643;SDS011;44236;48.098;11.582;2022-07-29T14:52:45;2.50;;;1.30;;
41643;SDS011;44236;48.098;11.582;2022-07-29T14:55:11;6.35;;;1.60;;
41643;SDS011;44236;48.098;11.582;2022-07-29T14:57:37;2.83;;;1.77;;
41643;SDS011;44236;48.098;11.582;2022-07-29T15:00:05;3.72;;;1.50;;
41643;SDS011;44236;48.098;11.582;2022-07-29T15:02:32;4.07;;;1.60;;
41643;SDS011;44236;48.098;11.582;2022-07-29T15:04:58;3.55;;;2.15;;
41643;SDS011;44236;48.098;11.582;2022-07-29T15:07:24;5.22;;;1.75;;
41643;SDS011;44236;48.098;11.582;2022-07-29T15:09:49;3.85;;;1.92;;
41643;SDS011;44236;48.098;11.582;2022-07-29T15:12:15;4.45;;;1.70;;
41643;SDS011;44236;48.098;11.582;2022-07-29T15:14:41;6.28;;;2.00;;
41643;SDS011;44236;48.098;11.582;2022-07-29T15:17:06;6.70;;;1.63;;
41643;SDS011;44236;48.098;11.582;2022-07-29T15:19:32;2.38;;;1.30;;
41643;SDS011;44236;48.098;11.582;2022-07-29T15:21:58;3.28;;;1.27;;
41643;SDS011;44236;48.098;11.582;2022-07-29T15:24:23;2.78;;;1.58;;
41643;SDS011;44236;48.098;11.582;2022-07-29T15:26:49;4.78;;;1.42;;
41643;SDS011;44236;48.098;11.582;2022-07-29T15:29:15;4.25;;;1.45;;
41643;SDS011;44236;48.098;11.582;2022-07-29T15:31:41;3.20;;;2.00;;
41643;SDS011;44236;48.098;11.582;2022-07-29T15:34:07;4.05;;;2.17;;
41643;SDS011;44236;48.098;11.582;2022-07-29T15:36:33;3.40;;;1.58;;
41643;SDS011;44236;48.098;11.582;2022-07-29T15:38:59;4.40;;;1.90;;
41643;SDS011;44236;48.098;11.582;2022-07-29T15:41:25;5.70;;;1.45;;
41643;SDS011;44236;48.098;11.582;2022-07-29T15:43:51;3.40;;;1.60;;
41643;SDS011;44236;48.098;11.582;2022-07-29T15:46:17;2.45;;;1.30;;
41643;SDS011;44236;48.098;11.582;2022-07-29T15:49:03;5.25;;;1.75;;
41643;SDS011;44236;48.098;11.582;2022-07-29T15:51:30;4.43;;;1.88;;
41643;SDS011;44236;48.098;11.582;2022-07-29T15:53:56;3.80;;;1.95;;
41643;SDS011;44236;48.098;11.582;2022-07-29T15:56:22;11.57;;;1.90;;